sensor_id;sensor_type;location;lat;lon;timestamp;temperature;humidity
9951;DHT22;24074;49.254;6.702;2023-11-21T00:01:45;8.90;99.90
9951;DHT22;24074;49.254;6.702;2023-11-21T00:04:11;8.90;99.90
9951;DHT22;24074;49.254;6.702;2023-11-21T00:06:36;8.80;99.90
9951;DHT22;24074;49.254;6.702;2023-11-21T00:09:02;8.80;99.90
9951;DHT22;24074;49.254;6.702;2023-11-21T00:11:28;8.80;99.90
9951;DHT22;24074;49.254;6.702;2023-11-21T00:13:54;8.80;99.90
9951;DHT22;24074;49.254;6.702;2023-11-21T00:16:20;8.90;99.90
9951;DHT22;24074;49.254;6.702;2023-11-21T00:18:47;8.90;99.90
9951;DHT22;24074;49.254;6.702;2023-11-21T00:21:13;8.90;99.90
9951;DHT22;24074;49.254;6.702;2023-11-21T00:23:38;8.90;99.90
9951;DHT22;24074;49.254;6.702;2023-11-21T00:26:04;9.00;99.90
9951;DHT22;24074;49.254;6.702;2023-11-21T00:28:29;9.10;99.90
9951;DHT22;24074;49.254;6.702;2023-11-21T00:30:55;9.00;99.90
9951;DHT22;24074;49.254;6.702;2023-11-21T00:33:21;9.00;99.90
9951;DHT22;24074;49.254;6.702;2023-11-21T00:35:46;9.10;99.90
9951;DHT22;24074;49.254;6.702;2023-11-21T00:38:15;9.00;99.90
9951;DHT22;24074;49.254;6.702;2023-11-21T00:40:40;9.00;99.90
9951;DHT22;24074;49.254;6.702;2023-11-21T00:43:06;9.00;99.90
9951;DHT22;24074;49.254;6.702;2023-11-21T00:45:32;9.00;99.90
9951;DHT22;24074;49.254;6.702;2023-11-21T00:47:57;9.10;99.90
9951;DHT22;24074;49.254;6.702;2023-11-21T00:50:23;9.00;99.90
9951;DHT22;24074;49.254;6.702;2023-11-21T00:52:49;9.00;99.90
9951;DHT22;24074;49.254;6.702;2023-11-21T00:55:16;8.90;99.90
9951;DHT22;24074;49.254;6.702;2023-11-21T00:57:43;8.90;99.90
9951;DHT22;24074;49.254;6.702;2023-11-21T01:00:09;9.00;99.90
9951;DHT22;24074;49.254;6.702;2023-11-21T01:02:39;8.90;99.90
9951;DHT22;24074;49.254;6.702;2023-11-21T01:05:05;9.00;99.90
9951;DHT22;24074;49.254;6.702;2023-11-21T01:07:33;8.90;99.90
9951;DHT22;24074;49.254;6.702;2023-11-21T01:09:58;8.90;99.90
9951;DHT22;24074;49.254;6.702;2023-11-21T01:12:24;8.90;99.90
9951;DHT22;24074;49.254;6.702;2023-11-21T01:14:50;8.80;99.90
9951;DHT22;24074;49.254;6.702;2023-11-21T01:17:16;8.80;99.90
9951;DHT22;24074;49.254;6.702;2023-11-21T01:19:42;8.80;99.90
9951;DHT22;24074;49.254;6.702;2023-11-21T01:22:07;8.70;99.90
9951;DHT22;24074;49.254;6.702;2023-11-21T01:24:33;8.70;99.90
9951;DHT22;24074;49.254;6.702;2023-11-21T01:26:59;8.80;99.90
9951;DHT22;24074;49.254;6.702;2023-11-21T01:29:25;8.80;99.90
9951;DHT22;24074;49.254;6.702;2023-11-21T01:31:50;8.70;99.90
9951;DHT22;24074;49.254;6.702;2023-11-21T01:34:17;8.70;99.90
9951;DHT22;24074;49.254;6.702;2023-11-21T01:36:42;8.80;99.90
9951;DHT22;24074;49.254;6.702;2023-11-21T01:39:08;8.80;99.90
9951;DHT22;24074;49.254;6.702;2023-11-21T01:41:34;8.80;99.90
9951;DHT22;24074;49.254;6.702;2023-11-21T01:44:03;8.80;99.90
9951;DHT22;24074;49.254;6.702;2023-11-21T01:46:32;8.80;99.90
9951;DHT22;24074;49.254;6.702;2023-11-21T01:48:57;8.80;99.90
9951;DHT22;24074;49.254;6.702;2023-11-21T01:51:23;8.80;99.90
9951;DHT22;24074;49.254;6.702;2023-11-21T01:53:49;8.90;99.90
9951;DHT22;24074;49.254;6.702;2023-11-21T01:56:15;8.80;99.90
9951;DHT22;24074;49.254;6.702;2023-11-21T01:58:41;8.80;99.90
9951;DHT22;24074;49.254;6.702;2023-11-21T02:01:08;8.90;99.90
9951;DHT22;24074;49.254;6.702;2023-11-21T02:03:35;8.90;99.90
9951;DHT22;24074;49.254;6.702;2023-11-21T02:06:01;8.90;99.90
9951;DHT22;24074;49.254;6.702;2023-11-21T02:08:26;9.00;99.90
9951;DHT22;24074;49.254;6.702;2023-11-21T02:10:52;9.00;99.90
9951;DHT22;24074;49.254;6.702;2023-11-21T02:13:18;9.00;99.90
9951;DHT22;24074;49.254;6.702;2023-11-21T02:15:43;8.90;99.90
9951;DHT22;24074;49.254;6.702;2023-11-21T02:18:09;8.90;99.90
9951;DHT22;24074;49.254;6.702;2023-11-21T02:20:36;8.90;99.90
9951;DHT22;24074;49.254;6.702;2023-11-21T02:23:04;8.80;99.90
9951;DHT22;24074;49.254;6.702;2023-11-21T02:25:31;8.80;99.90
9951;DHT22;24074;49.254;6.702;2023-11-21T02:27:59;8.80;99.90
9951;DHT22;24074;49.254;6.702;2023-11-21T02:30:28;8.70;99.90
9951;DHT22;24074;49.254;6.702;2023-11-21T02:32:54;8.70;99.90
9951;DHT22;24074;49.254;6.702;2023-11-21T02:35:22;8.70;99.90
9951;DHT22;24074;49.254;6.702;2023-11-21T02:37:49;8.70;99.90
9951;DHT22;24074;49.254;6.702;2023-11-21T02:40:15;8.70;99.90
9951;DHT22;24074;49.254;6.702;2023-11-21T02:42:46;8.70;99.90
9951;DHT22;24074;49.254;6.702;2023-11-21T02:45:13;8.70;99.90
9951;DHT22;24074;49.254;6.702;2023-11-21T02:47:42;8.70;99.90
9951;DHT22;24074;49.254;6.702;2023-11-21T02:50:08;8.70;99.90
9951;DHT22;24074;49.254;6.702;2023-11-21T02:52:35;8.60;99.90
9951;DHT22;24074;49.254;6.702;2023-11-21T02:55:04;8.60;99.90
9951;DHT22;24074;49.254;6.702;2023-11-21T02:57:29;8.60;99.90
9951;DHT22;24074;49.254;6.702;2023-11-21T02:59:55;8.60;99.90
9951;DHT22;24074;49.254;6.702;2023-11-21T03:02:21;8.60;99.90
9951;DHT22;24074;49.254;6.702;2023-11-21T03:04:47;8.60;99.90
9951;DHT22;24074;49.254;6.702;2023-11-21T03:07:14;8.60;99.90
9951;DHT22;24074;49.254;6.702;2023-11-21T03:09:40;8.60;99.90
9951;DHT22;24074;49.254;6.702;2023-11-21T03:12:09;8.60;99.90
9951;DHT22;24074;49.254;6.702;2023-11-21T03:14:35;8.60;99.90
9951;DHT22;24074;49.254;6.702;2023-11-21T03:17:00;8.60;99.90
9951;DHT22;24074;49.254;6.702;2023-11-21T03:19:26;8.60;99.90
9951;DHT22;24074;49.254;6.702;2023-11-21T03:21:51;8.70;99.90
9951;DHT22;24074;49.254;6.702;2023-11-21T03:24:18;8.70;99.90
9951;DHT22;24074;49.254;6.702;2023-11-21T03:26:45;8.60;99.90
9951;DHT22;24074;49.254;6.702;2023-11-21T03:29:12;8.70;99.90
9951;DHT22;24074;49.254;6.702;2023-11-21T03:31:38;8.70;99.90
9951;DHT22;24074;49.254;6.702;2023-11-21T03:34:03;8.70;99.90
9951;DHT22;24074;49.254;6.702;2023-11-21T03:36:29;8.70;99.90
9951;DHT22;24074;49.254;6.702;2023-11-21T03:38:54;8.70;99.90
9951;DHT22;24074;49.254;6.702;2023-11-21T03:41:26;8.70;99.90
9951;DHT22;24074;49.254;6.702;2023-11-21T03:43:55;8.70;99.90
9951;DHT22;24074;49.254;6.702;2023-11-21T03:46:21;8.70;99.90
9951;DHT22;24074;49.254;6.702;2023-11-21T03:48:46;8.70;99.90
9951;DHT22;24074;49.254;6.702;2023-11-21T03:51:12;8.70;99.90
9951;DHT22;24074;49.254;6.702;2023-11-21T03:53:37;8.60;99.90
9951;DHT22;24074;49.254;6.702;2023-11-21T03:56:03;8.60;99.90
9951;DHT22;24074;49.254;6.702;2023-11-21T03:58:29;8.70;99.90
9951;DHT22;24074;49.254;6.702;2023-11-21T04:00:55;8.70;99.90
9951;DHT22;24074;49.254;6.702;2023-11-21T04:03:20;8.70;99.90
9951;DHT22;24074;49.254;6.702;2023-11-21T04:05:49;8.60;99.90
9951;DHT22;24074;49.254;6.702;2023-11-21T04:08:14;8.60;99.90
9951;DHT22;24074;49.254;6.702;2023-11-21T04:10:40;8.70;99.90
9951;DHT22;24074;49.254;6.702;2023-11-21T04:13:06;8.70;99.90
9951;DHT22;24074;49.254;6.702;2023-11-21T04:15:34;8.70;99.90
9951;DHT22;24074;49.254;6.702;2023-11-21T04:17:59;8.70;99.90
9951;DHT22;24074;49.254;6.702;2023-11-21T04:20:25;8.70;99.90
9951;DHT22;24074;49.254;6.702;2023-11-21T04:22:50;8.70;99.90
9951;DHT22;24074;49.254;6.702;2023-11-21T04:25:16;8.70;99.90
9951;DHT22;24074;49.254;6.702;2023-11-21T04:27:42;8.70;99.90
9951;DHT22;24074;49.254;6.702;2023-11-21T04:30:10;8.70;99.90
9951;DHT22;24074;49.254;6.702;2023-11-21T04:32:36;8.70;99.90
9951;DHT22;24074;49.254;6.702;2023-11-21T04:35:02;8.70;99.90
9951;DHT22;24074;49.254;6.702;2023-11-21T04:37:29;8.70;99.90
9951;DHT22;24074;49.254;6.702;2023-11-21T04:39:54;8.70;99.90
9951;DHT22;24074;49.254;6.702;2023-11-21T04:42:20;8.60;99.90
9951;DHT22;24074;49.254;6.702;2023-11-21T04:44:46;8.60;99.90
9951;DHT22;24074;49.254;6.702;2023-11-21T04:47:11;8.60;99.90
9951;DHT22;24074;49.254;6.702;2023-11-21T04:49:39;8.50;99.90
9951;DHT22;24074;49.254;6.702;2023-11-21T04:52:05;8.50;99.90
9951;DHT22;24074;49.254;6.702;2023-11-21T04:54:31;8.60;99.90
9951;DHT22;24074;49.254;6.702;2023-11-21T04:56:56;8.60;99.90
9951;DHT22;24074;49.254;6.702;2023-11-21T04:59:22;8.60;99.90
9951;DHT22;24074;49.254;6.702;2023-11-21T05:01:52;8.50;99.90
9951;DHT22;24074;49.254;6.702;2023-11-21T05:04:19;8.50;99.90
9951;DHT22;24074;49.254;6.702;2023-11-21T05:06:45;8.50;99.90
9951;DHT22;24074;49.254;6.702;2023-11-21T05:09:11;8.50;99.90
9951;DHT22;24074;49.254;6.702;2023-11-21T05:11:37;8.50;99.90
9951;DHT22;24074;49.254;6.702;2023-11-21T05:14:03;8.60;99.90
9951;DHT22;24074;49.254;6.702;2023-11-21T05:16:30;8.60;99.90
9951;DHT22;24074;49.254;6.702;2023-11-21T05:18:56;8.50;99.90
9951;DHT22;24074;49.254;6.702;2023-11-21T05:21:27;8.60;99.90
9951;DHT22;24074;49.254;6.702;2023-11-21T05:23:52;8.60;99.90
9951;DHT22;24074;49.254;6.702;2023-11-21T05:26:21;8.60;99.90
9951;DHT22;24074;49.254;6.702;2023-11-21T05:28:47;8.50;99.90
9951;DHT22;24074;49.254;6.702;2023-11-21T05:31:13;8.50;99.90
9951;DHT22;24074;49.254;6.702;2023-11-21T05:33:38;8.50;99.90
9951;DHT22;24074;49.254;6.702;2023-11-21T05:36:04;8.50;99.90
9951;DHT22;24074;49.254;6.702;2023-11-21T05:38:30;8.50;99.90
9951;DHT22;24074;49.254;6.702;2023-11-21T05:40:55;8.50;99.90
9951;DHT22;24074;49.254;6.702;2023-11-21T05:43:21;8.50;99.90
9951;DHT22;24074;49.254;6.702;2023-11-21T05:45:46;8.50;99.90
9951;DHT22;24074;49.254;6.702;2023-11-21T05:48:12;8.50;99.90
9951;DHT22;24074;49.254;6.702;2023-11-21T05:50:38;8.50;99.90
9951;DHT22;24074;49.254;6.702;2023-11-21T05:53:03;8.50;99.90
9951;DHT22;24074;49.254;6.702;2023-11-21T05:55:29;8.50;99.90
9951;DHT22;24074;49.254;6.702;2023-11-21T05:57:55;8.40;99.90
9951;DHT22;24074;49.254;6.702;2023-11-21T06:00:21;8.50;99.90
9951;DHT22;24074;49.254;6.702;2023-11-21T06:02:52;8.40;99.90
9951;DHT22;24074;49.254;6.702;2023-11-21T06:05:19;8.40;99.90
9951;DHT22;24074;49.254;6.702;2023-11-21T06:07:46;8.40;99.90
9951;DHT22;24074;49.254;6.702;2023-11-21T06:10:12;8.40;99.90
9951;DHT22;24074;49.254;6.702;2023-11-21T06:12:43;8.40;99.90
9951;DHT22;24074;49.254;6.702;2023-11-21T06:15:10;8.40;99.90
9951;DHT22;24074;49.254;6.702;2023-11-21T06:17:39;8.40;99.90
9951;DHT22;24074;49.254;6.702;2023-11-21T06:20:09;8.40;99.90
9951;DHT22;24074;49.254;6.702;2023-11-21T06:22:38;8.40;99.90
9951;DHT22;24074;49.254;6.702;2023-11-21T06:25:05;8.40;99.90
9951;DHT22;24074;49.254;6.702;2023-11-21T06:27:32;8.40;99.90
9951;DHT22;24074;49.254;6.702;2023-11-21T06:29:58;8.40;99.90
9951;DHT22;24074;49.254;6.702;2023-11-21T06:32:26;8.50;99.90
9951;DHT22;24074;49.254;6.702;2023-11-21T06:34:58;8.40;99.90
9951;DHT22;24074;49.254;6.702;2023-11-21T06:37:29;8.50;99.90
9951;DHT22;24074;49.254;6.702;2023-11-21T06:39:56;8.50;99.90
9951;DHT22;24074;49.254;6.702;2023-11-21T06:42:24;8.40;99.90
9951;DHT22;24074;49.254;6.702;2023-11-21T06:44:50;8.40;99.90
9951;DHT22;24074;49.254;6.702;2023-11-21T06:47:25;8.50;99.90
9951;DHT22;24074;49.254;6.702;2023-11-21T06:49:54;8.50;99.90
9951;DHT22;24074;49.254;6.702;2023-11-21T06:52:20;8.50;99.90
9951;DHT22;24074;49.254;6.702;2023-11-21T06:54:47;8.50;99.90
9951;DHT22;24074;49.254;6.702;2023-11-21T06:57:13;8.50;99.90
9951;DHT22;24074;49.254;6.702;2023-11-21T06:59:38;8.60;99.90
9951;DHT22;24074;49.254;6.702;2023-11-21T07:02:04;8.50;99.90
9951;DHT22;24074;49.254;6.702;2023-11-21T07:04:36;8.60;99.90
9951;DHT22;24074;49.254;6.702;2023-11-21T07:07:02;8.60;99.90
9951;DHT22;24074;49.254;6.702;2023-11-21T07:09:28;8.60;99.90
9951;DHT22;24074;49.254;6.702;2023-11-21T07:11:55;8.60;99.90
9951;DHT22;24074;49.254;6.702;2023-11-21T07:14:21;8.60;99.90
9951;DHT22;24074;49.254;6.702;2023-11-21T07:16:47;8.60;99.90
9951;DHT22;24074;49.254;6.702;2023-11-21T07:19:12;8.80;99.90
9951;DHT22;24074;49.254;6.702;2023-11-21T07:21:39;8.60;99.90
9951;DHT22;24074;49.254;6.702;2023-11-21T07:24:06;8.70;99.90
9951;DHT22;24074;49.254;6.702;2023-11-21T07:26:32;8.70;99.90
9951;DHT22;24074;49.254;6.702;2023-11-21T07:28:58;8.70;99.90
9951;DHT22;24074;49.254;6.702;2023-11-21T07:31:24;8.80;99.90
9951;DHT22;24074;49.254;6.702;2023-11-21T07:33:50;8.80;99.90
9951;DHT22;24074;49.254;6.702;2023-11-21T07:36:17;8.80;99.90
9951;DHT22;24074;49.254;6.702;2023-11-21T07:38:48;8.70;99.90
9951;DHT22;24074;49.254;6.702;2023-11-21T07:41:14;8.70;99.90
9951;DHT22;24074;49.254;6.702;2023-11-21T07:43:43;8.80;99.90
9951;DHT22;24074;49.254;6.702;2023-11-21T07:46:09;8.90;99.90
9951;DHT22;24074;49.254;6.702;2023-11-21T07:48:35;8.90;99.90
9951;DHT22;24074;49.254;6.702;2023-11-21T07:51:02;8.80;99.90
9951;DHT22;24074;49.254;6.702;2023-11-21T07:53:30;8.90;99.90
9951;DHT22;24074;49.254;6.702;2023-11-21T07:55:57;8.90;99.90
9951;DHT22;24074;49.254;6.702;2023-11-21T07:58:22;8.90;99.90
9951;DHT22;24074;49.254;6.702;2023-11-21T08:00:49;9.00;99.90
9951;DHT22;24074;49.254;6.702;2023-11-21T08:03:15;9.00;99.90
9951;DHT22;24074;49.254;6.702;2023-11-21T08:05:41;9.00;99.90
9951;DHT22;24074;49.254;6.702;2023-11-21T08:08:07;9.00;99.90
9951;DHT22;24074;49.254;6.702;2023-11-21T08:10:33;9.10;99.90
9951;DHT22;24074;49.254;6.702;2023-11-21T08:12:58;9.10;99.90
9951;DHT22;24074;49.254;6.702;2023-11-21T08:15:24;9.10;99.90
9951;DHT22;24074;49.254;6.702;2023-11-21T08:17:49;9.00;99.90
9951;DHT22;24074;49.254;6.702;2023-11-21T08:20:18;9.00;99.90
9951;DHT22;24074;49.254;6.702;2023-11-21T08:22:44;9.00;99.90
9951;DHT22;24074;49.254;6.702;2023-11-21T08:25:13;9.10;99.90
9951;DHT22;24074;49.254;6.702;2023-11-21T08:27:39;9.00;99.90
9951;DHT22;24074;49.254;6.702;2023-11-21T08:30:05;9.10;99.90
9951;DHT22;24074;49.254;6.702;2023-11-21T08:32:30;9.20;99.90
9951;DHT22;24074;49.254;6.702;2023-11-21T08:35:00;9.20;99.90
9951;DHT22;24074;49.254;6.702;2023-11-21T08:37:29;9.20;99.90
9951;DHT22;24074;49.254;6.702;2023-11-21T08:39:58;9.30;99.90
9951;DHT22;24074;49.254;6.702;2023-11-21T08:42:25;9.30;99.90
9951;DHT22;24074;49.254;6.702;2023-11-21T08:44:50;9.40;99.90
9951;DHT22;24074;49.254;6.702;2023-11-21T08:47:16;9.40;99.90
9951;DHT22;24074;49.254;6.702;2023-11-21T08:49:42;9.40;99.90
9951;DHT22;24074;49.254;6.702;2023-11-21T08:52:08;9.50;99.90
9951;DHT22;24074;49.254;6.702;2023-11-21T08:54:34;9.50;99.90
9951;DHT22;24074;49.254;6.702;2023-11-21T08:56:59;9.50;99.90
9951;DHT22;24074;49.254;6.702;2023-11-21T08:59:26;9.50;99.90
9951;DHT22;24074;49.254;6.702;2023-11-21T09:01:52;9.60;99.90
9951;DHT22;24074;49.254;6.702;2023-11-21T09:04:18;9.70;99.90
9951;DHT22;24074;49.254;6.702;2023-11-21T09:06:43;9.80;99.90
9951;DHT22;24074;49.254;6.702;2023-11-21T09:09:09;10.00;99.90
9951;DHT22;24074;49.254;6.702;2023-11-21T09:11:36;10.00;99.90
9951;DHT22;24074;49.254;6.702;2023-11-21T09:14:02;10.00;99.90
9951;DHT22;24074;49.254;6.702;2023-11-21T09:16:28;10.10;99.90
9951;DHT22;24074;49.254;6.702;2023-11-21T09:18:54;10.20;99.90
9951;DHT22;24074;49.254;6.702;2023-11-21T09:21:20;10.30;99.90
9951;DHT22;24074;49.254;6.702;2023-11-21T09:23:45;10.30;99.90
9951;DHT22;24074;49.254;6.702;2023-11-21T09:26:11;10.50;99.90
9951;DHT22;24074;49.254;6.702;2023-11-21T09:28:37;10.80;99.90
9951;DHT22;24074;49.254;6.702;2023-11-21T09:31:05;11.00;99.90
9951;DHT22;24074;49.254;6.702;2023-11-21T09:33:34;11.50;99.90
9951;DHT22;24074;49.254;6.702;2023-11-21T09:36:00;12.00;99.90
9951;DHT22;24074;49.254;6.702;2023-11-21T09:38:26;12.30;99.90
9951;DHT22;24074;49.254;6.702;2023-11-21T09:40:54;13.00;99.90
9951;DHT22;24074;49.254;6.702;2023-11-21T09:43:20;13.90;99.90
9951;DHT22;24074;49.254;6.702;2023-11-21T09:46:00;16.30;99.90
9951;DHT22;24074;49.254;6.702;2023-11-21T09:48:29;19.30;99.90
9951;DHT22;24074;49.254;6.702;2023-11-21T09:50:56;20.70;99.90
9951;DHT22;24074;49.254;6.702;2023-11-21T09:53:22;22.90;99.90
9951;DHT22;24074;49.254;6.702;2023-11-21T09:55:53;25.00;91.50
9951;DHT22;24074;49.254;6.702;2023-11-21T09:58:19;23.40;83.50
9951;DHT22;24074;49.254;6.702;2023-11-21T10:00:49;20.50;91.20
9951;DHT22;24074;49.254;6.702;2023-11-21T10:03:15;18.00;96.40
9951;DHT22;24074;49.254;6.702;2023-11-21T10:05:45;18.20;99.70
9951;DHT22;24074;49.254;6.702;2023-11-21T10:08:12;17.50;99.50
9951;DHT22;24074;49.254;6.702;2023-11-21T10:10:42;16.20;99.90
9951;DHT22;24074;49.254;6.702;2023-11-21T10:13:11;14.80;99.90
9951;DHT22;24074;49.254;6.702;2023-11-21T10:15:38;13.80;99.90
9951;DHT22;24074;49.254;6.702;2023-11-21T10:18:05;13.60;99.90
9951;DHT22;24074;49.254;6.702;2023-11-21T10:20:32;13.20;99.90
9951;DHT22;24074;49.254;6.702;2023-11-21T10:23:03;12.90;99.90
9951;DHT22;24074;49.254;6.702;2023-11-21T10:25:30;12.60;99.90
9951;DHT22;24074;49.254;6.702;2023-11-21T10:28:01;12.40;99.90
9951;DHT22;24074;49.254;6.702;2023-11-21T10:30:39;12.50;99.90
9951;DHT22;24074;49.254;6.702;2023-11-21T10:33:06;12.60;99.90
9951;DHT22;24074;49.254;6.702;2023-11-21T10:35:43;12.60;99.90
9951;DHT22;24074;49.254;6.702;2023-11-21T10:38:15;12.50;99.90
9951;DHT22;24074;49.254;6.702;2023-11-21T10:40:41;12.80;99.90
9951;DHT22;24074;49.254;6.702;2023-11-21T10:43:08;12.90;99.90
9951;DHT22;24074;49.254;6.702;2023-11-21T10:45:35;13.00;99.90
9951;DHT22;24074;49.254;6.702;2023-11-21T10:48:05;13.20;99.90
9951;DHT22;24074;49.254;6.702;2023-11-21T10:50:33;13.20;99.90
9951;DHT22;24074;49.254;6.702;2023-11-21T10:53:01;12.60;99.90
9951;DHT22;24074;49.254;6.702;2023-11-21T10:55:27;12.40;99.90
9951;DHT22;24074;49.254;6.702;2023-11-21T10:57:54;12.30;99.90
9951;DHT22;24074;49.254;6.702;2023-11-21T11:00:22;12.30;99.90
9951;DHT22;24074;49.254;6.702;2023-11-21T11:02:52;12.10;99.90
9951;DHT22;24074;49.254;6.702;2023-11-21T11:05:20;12.60;99.90
9951;DHT22;24074;49.254;6.702;2023-11-21T11:08:04;15.70;99.90
9951;DHT22;24074;49.254;6.702;2023-11-21T11:10:31;18.10;99.90
9951;DHT22;24074;49.254;6.702;2023-11-21T11:12:57;19.40;99.90
9951;DHT22;24074;49.254;6.702;2023-11-21T11:15:24;20.90;99.10
9951;DHT22;24074;49.254;6.702;2023-11-21T11:17:50;20.30;95.60
9951;DHT22;24074;49.254;6.702;2023-11-21T11:20:16;17.90;96.70
9951;DHT22;24074;49.254;6.702;2023-11-21T11:28:17;14.20;99.90
9951;DHT22;24074;49.254;6.702;2023-11-21T11:33:53;12.50;99.90
9951;DHT22;24074;49.254;6.702;2023-11-21T11:36:36;12.20;99.90
9951;DHT22;24074;49.254;6.702;2023-11-21T11:39:03;12.10;99.90
9951;DHT22;24074;49.254;6.702;2023-11-21T11:41:31;12.00;99.90
9951;DHT22;24074;49.254;6.702;2023-11-21T11:44:02;12.00;99.90
9951;DHT22;24074;49.254;6.702;2023-11-21T11:46:45;11.90;99.90
9951;DHT22;24074;49.254;6.702;2023-11-21T11:49:29;12.00;99.90
9951;DHT22;24074;49.254;6.702;2023-11-21T11:55:14;12.50;99.90
9951;DHT22;24074;49.254;6.702;2023-11-21T11:57:42;12.60;99.90
9951;DHT22;24074;49.254;6.702;2023-11-21T12:00:12;12.60;99.90
9951;DHT22;24074;49.254;6.702;2023-11-21T12:02:41;13.00;99.90
9951;DHT22;24074;49.254;6.702;2023-11-21T12:05:11;13.50;99.90
9951;DHT22;24074;49.254;6.702;2023-11-21T12:07:49;13.50;99.90
9951;DHT22;24074;49.254;6.702;2023-11-21T12:10:17;13.40;99.90
9951;DHT22;24074;49.254;6.702;2023-11-21T12:12:51;13.20;99.90
9951;DHT22;24074;49.254;6.702;2023-11-21T12:15:20;12.70;99.90
9951;DHT22;24074;49.254;6.702;2023-11-21T12:17:47;12.40;99.90
9951;DHT22;24074;49.254;6.702;2023-11-21T12:20:15;12.00;99.90
9951;DHT22;24074;49.254;6.702;2023-11-21T12:22:44;11.80;99.90
9951;DHT22;24074;49.254;6.702;2023-11-21T12:25:13;11.70;99.90
9951;DHT22;24074;49.254;6.702;2023-11-21T12:27:42;11.50;99.90
9951;DHT22;24074;49.254;6.702;2023-11-21T12:30:08;11.60;99.90
9951;DHT22;24074;49.254;6.702;2023-11-21T12:32:42;11.50;99.90
9951;DHT22;24074;49.254;6.702;2023-11-21T12:35:10;11.60;99.90
9951;DHT22;24074;49.254;6.702;2023-11-21T12:37:38;11.60;99.90
9951;DHT22;24074;49.254;6.702;2023-11-21T12:40:06;11.70;99.90
9951;DHT22;24074;49.254;6.702;2023-11-21T12:42:32;11.70;99.90
9951;DHT22;24074;49.254;6.702;2023-11-21T12:47:47;11.80;99.90
9951;DHT22;24074;49.254;6.702;2023-11-21T12:50:13;11.80;99.90
9951;DHT22;24074;49.254;6.702;2023-11-21T12:52:44;11.80;99.90
9951;DHT22;24074;49.254;6.702;2023-11-21T12:55:22;11.70;99.90
9951;DHT22;24074;49.254;6.702;2023-11-21T12:57:52;11.80;99.90
9951;DHT22;24074;49.254;6.702;2023-11-21T13:00:27;11.70;99.90
9951;DHT22;24074;49.254;6.702;2023-11-21T13:02:54;11.60;99.90
9951;DHT22;24074;49.254;6.702;2023-11-21T13:05:39;11.60;99.90
9951;DHT22;24074;49.254;6.702;2023-11-21T13:08:06;11.50;99.90
9951;DHT22;24074;49.254;6.702;2023-11-21T13:10:40;11.40;99.90
9951;DHT22;24074;49.254;6.702;2023-11-21T13:13:09;11.40;99.90
9951;DHT22;24074;49.254;6.702;2023-11-21T13:15:39;11.30;99.90
9951;DHT22;24074;49.254;6.702;2023-11-21T13:18:06;11.30;99.90
9951;DHT22;24074;49.254;6.702;2023-11-21T13:20:32;11.40;99.90
9951;DHT22;24074;49.254;6.702;2023-11-21T13:22:58;11.40;99.90
9951;DHT22;24074;49.254;6.702;2023-11-21T13:25:28;11.40;99.90
9951;DHT22;24074;49.254;6.702;2023-11-21T13:28:02;11.50;99.90
9951;DHT22;24074;49.254;6.702;2023-11-21T13:30:28;11.40;99.90
9951;DHT22;24074;49.254;6.702;2023-11-21T13:33:03;11.40;99.90
9951;DHT22;24074;49.254;6.702;2023-11-21T13:35:34;11.30;99.90
9951;DHT22;24074;49.254;6.702;2023-11-21T13:38:09;11.30;99.90
9951;DHT22;24074;49.254;6.702;2023-11-21T13:40:36;11.30;99.90
9951;DHT22;24074;49.254;6.702;2023-11-21T13:43:17;11.40;99.90
9951;DHT22;24074;49.254;6.702;2023-11-21T13:45:44;11.40;99.90
9951;DHT22;24074;49.254;6.702;2023-11-21T13:48:12;11.40;99.90
9951;DHT22;24074;49.254;6.702;2023-11-21T13:50:42;11.40;99.90
9951;DHT22;24074;49.254;6.702;2023-11-21T13:53:23;11.40;99.90
9951;DHT22;24074;49.254;6.702;2023-11-21T13:55:53;11.40;99.90
9951;DHT22;24074;49.254;6.702;2023-11-21T13:58:20;11.40;99.90
9951;DHT22;24074;49.254;6.702;2023-11-21T14:00:50;11.40;99.90
9951;DHT22;24074;49.254;6.702;2023-11-21T14:03:23;11.30;99.90
9951;DHT22;24074;49.254;6.702;2023-11-21T14:05:58;11.30;99.90
9951;DHT22;24074;49.254;6.702;2023-11-21T14:08:26;11.30;99.90
9951;DHT22;24074;49.254;6.702;2023-11-21T14:10:54;11.30;99.90
9951;DHT22;24074;49.254;6.702;2023-11-21T14:13:25;11.30;99.90
9951;DHT22;24074;49.254;6.702;2023-11-21T14:15:51;11.20;99.90
9951;DHT22;24074;49.254;6.702;2023-11-21T14:18:23;11.20;99.90
9951;DHT22;24074;49.254;6.702;2023-11-21T14:20:56;11.30;99.90
9951;DHT22;24074;49.254;6.702;2023-11-21T14:23:22;11.20;99.90
9951;DHT22;24074;49.254;6.702;2023-11-21T14:25:49;11.10;99.90
9951;DHT22;24074;49.254;6.702;2023-11-21T14:28:18;11.00;99.90
9951;DHT22;24074;49.254;6.702;2023-11-21T14:30:47;11.00;99.90
9951;DHT22;24074;49.254;6.702;2023-11-21T14:33:13;11.00;99.90
9951;DHT22;24074;49.254;6.702;2023-11-21T14:35:38;10.90;99.90
9951;DHT22;24074;49.254;6.702;2023-11-21T14:38:04;10.90;99.90
9951;DHT22;24074;49.254;6.702;2023-11-21T14:40:33;10.90;99.90
9951;DHT22;24074;49.254;6.702;2023-11-21T14:43:01;10.90;99.90
9951;DHT22;24074;49.254;6.702;2023-11-21T14:45:27;10.90;99.90
9951;DHT22;24074;49.254;6.702;2023-11-21T14:47:54;10.90;99.90
9951;DHT22;24074;49.254;6.702;2023-11-21T14:50:41;10.80;99.90
9951;DHT22;24074;49.254;6.702;2023-11-21T14:53:11;10.80;99.90
9951;DHT22;24074;49.254;6.702;2023-11-21T14:55:38;10.70;99.90
9951;DHT22;24074;49.254;6.702;2023-11-21T14:58:06;10.70;99.90
9951;DHT22;24074;49.254;6.702;2023-11-21T15:00:36;10.70;99.90
9951;DHT22;24074;49.254;6.702;2023-11-21T15:03:02;10.60;99.90
9951;DHT22;24074;49.254;6.702;2023-11-21T15:05:28;10.50;99.90
9951;DHT22;24074;49.254;6.702;2023-11-21T15:07:55;10.50;99.90
9951;DHT22;24074;49.254;6.702;2023-11-21T15:10:37;10.40;99.90
9951;DHT22;24074;49.254;6.702;2023-11-21T15:13:13;10.40;99.90
9951;DHT22;24074;49.254;6.702;2023-11-21T15:15:41;10.40;99.90
9951;DHT22;24074;49.254;6.702;2023-11-21T15:18:06;10.30;99.90
9951;DHT22;24074;49.254;6.702;2023-11-21T15:20:33;10.30;99.90
9951;DHT22;24074;49.254;6.702;2023-11-21T15:22:58;10.30;99.90
9951;DHT22;24074;49.254;6.702;2023-11-21T15:25:24;10.20;99.90
9951;DHT22;24074;49.254;6.702;2023-11-21T15:27:49;10.10;99.90
9951;DHT22;24074;49.254;6.702;2023-11-21T15:30:16;10.20;99.90
9951;DHT22;24074;49.254;6.702;2023-11-21T15:32:44;10.20;99.90
9951;DHT22;24074;49.254;6.702;2023-11-21T15:35:10;10.10;99.90
9951;DHT22;24074;49.254;6.702;2023-11-21T15:37:38;10.10;99.90
9951;DHT22;24074;49.254;6.702;2023-11-21T15:40:04;10.10;99.90
9951;DHT22;24074;49.254;6.702;2023-11-21T15:42:31;10.10;99.90
9951;DHT22;24074;49.254;6.702;2023-11-21T15:44:57;10.00;99.90
9951;DHT22;24074;49.254;6.702;2023-11-21T15:47:22;10.00;99.90
9951;DHT22;24074;49.254;6.702;2023-11-21T15:49:48;9.90;99.90
9951;DHT22;24074;49.254;6.702;2023-11-21T15:52:13;9.90;99.90
9951;DHT22;24074;49.254;6.702;2023-11-21T15:54:40;9.90;99.90
9951;DHT22;24074;49.254;6.702;2023-11-21T15:57:05;9.90;99.90
9951;DHT22;24074;49.254;6.702;2023-11-21T15:59:33;9.90;99.90
9951;DHT22;24074;49.254;6.702;2023-11-21T16:01:59;9.90;99.90
9951;DHT22;24074;49.254;6.702;2023-11-21T16:04:25;9.80;99.90
9951;DHT22;24074;49.254;6.702;2023-11-21T16:06:54;9.80;99.90
9951;DHT22;24074;49.254;6.702;2023-11-21T16:09:20;9.80;99.90
9951;DHT22;24074;49.254;6.702;2023-11-21T16:12:00;9.80;99.90